Airfield :
LOGIN :

Register | Disclaimer

   EN    FR    IT 

 










Legend :    VFR   Marginal VFR   IFR   Intensive IFR   Very Intensive IFR
Visi :
Ceiling :
>= 8 km
>= 3000ft
5 to 8 km
1000 to 3000 ft
1500m to 5 km
500 to 1000 ft
800 to 1500m
200 to 500 ft
< 800m
< 200 ft
Symbols :   Thunderstorms  Fog  Heavy snow  Heavy precipitations  Wind > 20 kt
SIGMETs :     Misc.  Thunderstorms  Icing  Turbulence  Mountain Waves  Volcanic Ashes






- Airport Elevation : 1989 ft
- IATA code : KLV


LKKV - Karlovy Vary

CURRENT METAR :
  • 190400Z 25008KT 220V280 9999 OVC009 M00/M01 Q1016 R29///////

EXPIRED METARs :
  • 190300Z 25010KT 210V280 9999 SCT006 OVC008 M00/M01 Q1016 R29///////
  • 190200Z 26009KT 210V290 9999 SCT005 OVC007 M00/M00 Q1017 R29///////

TAF TAF LKKV
Valid from the 19 at 00:00 until the 20 at 06:00 UTC


182300Z 1900/2006 25012KT 9999 BKN012
TEMPO 1900/2006 26016G26KT
TEMPO 1900/2000 5000 SN BKN006
PROB30
TEMPO 1914/1919 27022G40KT 2000 SN BKN003
BECMG 2000/2002 CAVOK



MET'MAP, your aeronautical weather chart ! - Copyright ORBIFLY December 2007 - Disclaimer

ORBIFLY MET'MAP TEAM :

Programming & Development : Alexandra Zaïnal
Concept & original design : Baudouin d'Aumeries
Assistance for programming : Marc-Olivier Méhu
Technical & hardware support : Manuel Goepfert

Contact : metmap@orbifly.com




SOURCES & CREDITS :

   NOAA